Time;durP1;ratioP1;P1;durP2;ratioP2;P2;SDS_P1;SDS_P2;PMS_P1;PMS_P2;Temp;Humidity;BMP_temperature;BMP_pressure;BME280_temperature;BME280_humidity;BME280_pressure;Samples;Min_cycle;Max_cycle;Signal;HPM_P1;HPM_P2
2021/08/17 00:00:18;;;;;;;13.02;10.55;;;19.50;99.90;;;;;;4190337;28;20082;-63
2021/08/17 00:02:19;;;;;;;15.90;11.32;;;19.50;99.90;;;;;;4189785;28;20032;-65
2021/08/17 00:04:20;;;;;;;13.80;9.88;;;19.50;99.90;;;;;;4189927;28;20036;-64
2021/08/17 00:06:21;;;;;;;11.02;9.60;;;19.50;99.90;;;;;;4190049;28;20867;-64
2021/08/17 00:08:22;;;;;;;10.52;9.32;;;19.60;99.90;;;;;;4189487;28;20028;-64
2021/08/17 00:10:24;;;;;;;14.10;9.13;;;19.70;99.90;;;;;;4190017;28;20082;-64
2021/08/17 00:12:25;;;;;;;11.43;8.85;;;19.80;99.90;;;;;;4189546;28;20463;-64
2021/08/17 00:14:27;;;;;;;15.88;9.98;;;19.80;99.90;;;;;;4189356;28;20033;-64
2021/08/17 00:16:28;;;;;;;11.07;9.32;;;19.80;99.90;;;;;;4189651;28;20090;-64
2021/08/17 00:18:29;;;;;;;10.43;9.18;;;19.80;99.90;;;;;;4189170;28;20090;-64
2021/08/17 00:20:30;;;;;;;15.18;9.52;;;19.80;99.90;;;;;;4189846;28;20066;-64
2021/08/17 00:22:31;;;;;;;13.07;9.40;;;19.80;99.90;;;;;;4189604;28;20086;-64
2021/08/17 00:24:36;;;;;;;13.48;9.98;;;19.80;99.90;;;;;;4189925;28;20364;-64
2021/08/17 00:26:37;;;;;;;12.25;8.65;;;19.80;99.90;;;;;;4190195;28;20078;-65
2021/08/17 00:28:38;;;;;;;13.73;10.35;;;19.80;99.90;;;;;;4188513;28;20042;-64
2021/08/17 00:30:39;;;;;;;13.80;9.73;;;19.80;99.90;;;;;;4189735;28;20098;-65
2021/08/17 00:32:41;;;;;;;12.57;9.65;;;19.90;99.90;;;;;;4189202;28;20048;-64
2021/08/17 00:34:42;;;;;;;11.70;9.30;;;19.90;99.90;;;;;;4189119;28;20480;-64
2021/08/17 00:36:43;;;;;;;12.43;9.40;;;19.90;99.90;;;;;;4189177;28;20029;-64
2021/08/17 00:38:44;;;;;;;11.23;8.60;;;19.90;99.90;;;;;;4188855;28;20045;-64
2021/08/17 00:40:46;;;;;;;11.32;8.40;;;20.00;99.90;;;;;;4189377;28;20017;-64
2021/08/17 00:42:48;;;;;;;12.45;9.25;;;20.00;99.90;;;;;;4189139;28;20040;-64
2021/08/17 00:44:49;;;;;;;16.52;9.38;;;20.00;99.90;;;;;;4189394;28;20066;-64
2021/08/17 00:47:00;;;;;;;14.13;9.45;;;20.00;99.90;;;;;;4189445;28;20074;-64
2021/08/17 00:49:01;;;;;;;15.13;9.07;;;20.00;99.90;;;;;;4189255;28;20030;-64
2021/08/17 00:51:03;;;;;;;12.13;9.77;;;20.10;99.90;;;;;;4189049;28;20082;-64
2021/08/17 00:53:05;;;;;;;14.63;9.90;;;20.10;99.90;;;;;;4189331;28;20037;-63
2021/08/17 00:55:09;;;;;;;11.40;8.88;;;20.10;99.90;;;;;;4188547;28;20623;-64
2021/08/17 00:57:13;;;;;;;14.25;9.27;;;20.10;99.90;;;;;;4189239;28;20098;-64
2021/08/17 00:59:16;;;;;;;13.93;9.38;;;20.10;99.90;;;;;;4189047;28;20105;-63
2021/08/17 01:01:19;;;;;;;14.55;9.73;;;20.10;99.90;;;;;;4189059;28;20036;-63
2021/08/17 01:03:20;;;;;;;15.65;9.18;;;20.20;99.90;;;;;;4188804;28;20036;-63
2021/08/17 01:05:27;;;;;;;10.43;8.35;;;20.20;99.90;;;;;;4189062;28;20546;-63
2021/08/17 01:07:29;;;;;;;14.52;8.80;;;20.30;99.90;;;;;;4188285;28;20074;-64
2021/08/17 01:09:30;;;;;;;12.10;9.30;;;20.30;99.90;;;;;;4189045;28;20040;-63
2021/08/17 01:11:31;;;;;;;11.40;8.15;;;20.30;99.90;;;;;;4188755;28;20605;-63
2021/08/17 01:13:34;;;;;;;11.32;8.85;;;20.40;99.90;;;;;;4188936;28;20476;-63
2021/08/17 01:15:35;;;;;;;12.90;9.05;;;20.40;99.90;;;;;;4188442;28;20044;-63
2021/08/17 01:17:36;;;;;;;15.07;10.00;;;20.40;99.90;;;;;;4188927;28;20028;-63
2021/08/17 01:19:37;;;;;;;17.27;8.68;;;20.40;99.90;;;;;;4188935;28;20025;-63
2021/08/17 01:21:39;;;;;;;10.77;8.75;;;20.30;99.90;;;;;;4188988;28;20033;-63
2021/08/17 01:23:40;;;;;;;13.38;9.43;;;20.40;99.90;;;;;;4189201;28;20074;-63
2021/08/17 01:25:41;;;;;;;17.45;9.35;;;20.40;99.90;;;;;;4189482;28;20362;-63
2021/08/17 01:27:44;;;;;;;10.68;8.65;;;20.30;99.90;;;;;;4188842;28;20093;-63
2021/08/17 01:29:45;;;;;;;12.27;9.48;;;20.40;99.90;;;;;;4188728;28;20105;-63
2021/08/17 01:31:47;;;;;;;15.48;9.73;;;20.40;99.90;;;;;;4187717;28;20106;-64
2021/08/17 01:33:48;;;;;;;15.05;9.27;;;20.40;99.90;;;;;;4188929;28;20028;-63
2021/08/17 01:35:49;;;;;;;14.43;9.63;;;20.40;99.90;;;;;;4188527;28;20109;-63
2021/08/17 01:37:50;;;;;;;18.13;9.95;;;20.30;99.90;;;;;;4188416;28;20098;-63
2021/08/17 01:40:05;;;;;;;13.63;9.35;;;20.30;99.90;;;;;;4188511;28;20044;-64
2021/08/17 01:42:07;;;;;;;10.98;8.02;;;20.30;99.90;;;;;;4171756;28;20037;-63
2021/08/17 01:44:12;;;;;;;14.85;8.93;;;20.30;99.90;;;;;;4170982;28;20049;-63
2021/08/17 01:46:13;;;;;;;9.68;8.68;;;20.30;99.90;;;;;;4172051;28;20021;-63
2021/08/17 01:48:14;;;;;;;13.85;9.13;;;20.30;99.90;;;;;;4172489;28;20726;-62
2021/08/17 01:50:16;;;;;;;14.10;9.13;;;20.30;99.90;;;;;;4181080;28;20020;-62
2021/08/17 01:52:17;;;;;;;11.35;8.77;;;20.30;99.90;;;;;;4188379;28;20094;-63
2021/08/17 01:54:19;;;;;;;12.40;9.27;;;20.30;99.90;;;;;;4187955;28;20037;-63
2021/08/17 01:56:20;;;;;;;17.92;9.57;;;20.20;99.90;;;;;;4189064;28;20040;-63
2021/08/17 01:58:26;;;;;;;16.38;9.23;;;20.10;99.90;;;;;;4188467;28;20098;-63
2021/08/17 02:00:27;;;;;;;17.13;10.27;;;20.10;99.90;;;;;;4188075;28;20036;-63
2021/08/17 02:02:28;;;;;;;16.75;10.02;;;20.00;99.90;;;;;;4187734;28;20102;-63
2021/08/17 02:04:31;;;;;;;11.32;9.50;;;20.00;99.90;;;;;;4188613;28;20086;-64
2021/08/17 02:06:33;;;;;;;15.55;10.43;;;19.90;99.90;;;;;;4190003;28;20033;-63
2021/08/17 02:08:34;;;;;;;17.13;9.52;;;19.90;99.90;;;;;;4191558;28;20459;-63
2021/08/17 02:10:36;;;;;;;15.15;9.50;;;19.80;99.90;;;;;;4192303;28;20062;-63
2021/08/17 02:12:37;;;;;;;18.27;10.73;;;19.80;99.90;;;;;;4191358;28;20117;-63
2021/08/17 02:14:40;;;;;;;15.45;10.43;;;19.80;99.90;;;;;;4190462;28;20086;-63
2021/08/17 02:16:41;;;;;;;13.43;8.77;;;19.80;99.90;;;;;;4191107;28;20374;-63
2021/08/17 02:18:42;;;;;;;14.15;10.50;;;19.70;99.90;;;;;;4190085;28;20476;-63
2021/08/17 02:20:44;;;;;;;16.58;10.30;;;19.70;99.90;;;;;;4185089;28;20041;-63
2021/08/17 02:22:45;;;;;;;16.75;9.73;;;19.60;99.90;;;;;;4173853;28;20045;-63
2021/08/17 02:24:46;;;;;;;15.48;9.90;;;19.70;99.90;;;;;;4175748;28;20436;-63
2021/08/17 02:26:47;;;;;;;16.27;10.23;;;19.70;99.90;;;;;;4174904;28;20037;-63
2021/08/17 02:28:48;;;;;;;16.98;13.05;;;19.70;99.90;;;;;;4175024;28;20713;-63
2021/08/17 02:30:51;;;;;;;14.18;11.60;;;19.60;99.90;;;;;;4175139;28;20095;-63
2021/08/17 02:32:52;;;;;;;15.52;11.73;;;19.60;99.90;;;;;;4174900;28;20048;-63
2021/08/17 02:34:53;;;;;;;16.90;11.65;;;19.60;99.90;;;;;;4174579;28;20130;-63
2021/08/17 02:36:54;;;;;;;18.42;11.25;;;19.60;99.90;;;;;;4174645;28;20037;-63
2021/08/17 02:38:55;;;;;;;12.95;11.48;;;19.60;99.90;;;;;;4174637;28;20033;-63
2021/08/17 02:40:57;;;;;;;19.55;11.50;;;19.70;99.90;;;;;;4189568;28;20044;-64
2021/08/17 02:42:58;;;;;;;16.08;11.65;;;19.70;99.90;;;;;;4190041;28;20048;-63
2021/08/17 02:45:00;;;;;;;13.63;10.23;;;19.70;99.90;;;;;;4191013;28;20036;-64
2021/08/17 02:47:01;;;;;;;16.40;11.02;;;19.70;99.90;;;;;;4190955;28;20036;-64
2021/08/17 02:49:02;;;;;;;12.75;9.95;;;19.70;99.90;;;;;;4190588;28;20037;-64
2021/08/17 02:51:03;;;;;;;17.48;10.18;;;19.60;99.90;;;;;;4190594;28;20040;-64
2021/08/17 02:53:04;;;;;;;15.55;9.38;;;19.60;99.90;;;;;;4190795;28;20491;-65
2021/08/17 02:55:07;;;;;;;13.93;10.27;;;19.50;99.90;;;;;;4190545;28;20086;-62
2021/08/17 02:57:08;;;;;;;13.32;10.90;;;19.50;99.90;;;;;;4191088;28;20032;-63
2021/08/17 02:59:09;;;;;;;15.88;10.73;;;19.40;99.90;;;;;;4190871;28;20086;-63
2021/08/17 03:01:10;;;;;;;15.65;11.02;;;19.30;99.90;;;;;;4190981;28;20032;-63
2021/08/17 03:03:11;;;;;;;12.95;10.80;;;19.20;99.90;;;;;;4190808;28;20078;-63
2021/08/17 03:05:12;;;;;;;16.02;11.15;;;19.20;99.90;;;;;;4190953;28;20106;-63
2021/08/17 03:07:14;;;;;;;14.30;10.63;;;19.20;99.90;;;;;;4191096;28;20024;-63
2021/08/17 03:09:15;;;;;;;19.83;10.70;;;19.20;99.90;;;;;;4190892;28;20020;-63
2021/08/17 03:11:16;;;;;;;15.65;10.82;;;19.20;99.90;;;;;;4190492;28;20507;-64
2021/08/17 03:13:17;;;;;;;20.58;11.55;;;19.20;99.90;;;;;;4190955;28;20028;-64
2021/08/17 03:15:19;;;;;;;16.77;10.85;;;19.10;99.90;;;;;;4190504;28;20106;-63
2021/08/17 03:17:21;;;;;;;18.40;11.45;;;19.20;99.90;;;;;;4189798;28;20075;-66
2021/08/17 03:19:22;;;;;;;18.58;12.00;;;19.20;99.90;;;;;;4189956;28;20074;-63
2021/08/17 03:21:23;;;;;;;15.70;11.18;;;19.30;99.90;;;;;;4190654;28;20033;-63
2021/08/17 03:23:28;;;;;;;14.13;10.93;;;19.20;99.90;;;;;;4190017;28;20036;-63
2021/08/17 03:25:30;;;;;;;17.05;11.73;;;19.40;99.90;;;;;;4190461;28;20052;-63
2021/08/17 03:27:31;;;;;;;15.70;10.98;;;19.40;99.90;;;;;;4190069;28;20074;-63
2021/08/17 03:29:32;;;;;;;19.95;11.23;;;19.40;99.90;;;;;;4190017;28;20473;-63
2021/08/17 03:31:33;;;;;;;12.90;10.80;;;19.40;99.90;;;;;;4189294;28;20075;-63
2021/08/17 03:33:36;;;;;;;17.27;11.50;;;19.40;99.90;;;;;;4190595;28;20029;-63
2021/08/17 03:35:37;;;;;;;15.63;11.77;;;19.40;99.90;;;;;;4189946;28;20138;-64
2021/08/17 03:37:38;;;;;;;21.60;11.73;;;19.40;99.90;;;;;;4190122;28;20036;-63
2021/08/17 03:39:39;;;;;;;15.60;11.63;;;19.40;99.90;;;;;;4190406;28;20101;-66
2021/08/17 03:41:40;;;;;;;17.02;12.25;;;19.40;99.90;;;;;;4190478;28;20404;-64
2021/08/17 03:43:42;;;;;;;20.80;12.00;;;19.50;99.90;;;;;;4190355;28;20377;-63
2021/08/17 03:45:43;;;;;;;18.00;11.85;;;19.50;99.90;;;;;;4190417;28;20028;-63
2021/08/17 03:47:44;;;;;;;16.88;12.23;;;19.60;99.90;;;;;;4190204;28;20097;-64
2021/08/17 03:49:45;;;;;;;19.27;11.65;;;19.70;99.90;;;;;;4189938;28;20056;-64
2021/08/17 03:51:47;;;;;;;16.60;11.65;;;19.80;99.90;;;;;;4189737;28;20048;-64
2021/08/17 03:53:48;;;;;;;22.95;12.35;;;19.90;99.90;;;;;;4190167;28;20423;-64
2021/08/17 03:55:49;;;;;;;16.45;12.25;;;20.00;99.90;;;;;;4190344;28;20036;-64
2021/08/17 03:57:51;;;;;;;21.40;11.85;;;20.00;99.90;;;;;;4189884;28;20484;-64
2021/08/17 03:59:52;;;;;;;16.38;12.77;;;20.00;99.90;;;;;;4189311;28;20090;-66
2021/08/17 04:01:53;;;;;;;23.80;12.45;;;20.00;99.90;;;;;;4187791;28;20044;-63
2021/08/17 04:03:54;;;;;;;20.15;12.25;;;20.00;99.90;;;;;;4190584;28;20044;-64
2021/08/17 04:05:56;;;;;;;20.90;13.05;;;19.90;99.90;;;;;;4189884;28;20032;-65
2021/08/17 04:07:57;;;;;;;19.25;12.07;;;19.90;99.90;;;;;;4190051;28;20056;-65
2021/08/17 04:09:58;;;;;;;15.15;12.60;;;19.90;99.90;;;;;;4190349;28;20447;-65
2021/08/17 04:11:59;;;;;;;16.50;11.38;;;19.90;99.90;;;;;;4189380;28;20443;-66
2021/08/17 04:14:00;;;;;;;18.77;12.63;;;20.10;99.90;;;;;;4189358;28;20111;-63
2021/08/17 04:16:01;;;;;;;16.27;11.65;;;20.20;99.90;;;;;;4188533;28;20040;-65
2021/08/17 04:18:03;;;;;;;16.85;11.70;;;20.20;99.90;;;;;;4188985;28;20029;-65
2021/08/17 04:20:06;;;;;;;18.65;12.60;;;20.40;99.90;;;;;;4187689;28;20040;-65
2021/08/17 04:22:07;;;;;;;20.48;12.88;;;20.60;99.90;;;;;;4188521;28;20032;-65
2021/08/17 04:24:08;;;;;;;19.52;12.00;;;20.90;99.90;;;;;;4189325;28;20426;-66
2021/08/17 04:26:09;;;;;;;19.45;11.57;;;21.10;99.90;;;;;;4189110;28;20037;-64
2021/08/17 04:28:11;;;;;;;16.40;10.90;;;21.30;99.90;;;;;;4189528;28;20980;-64
2021/08/17 04:30:12;;;;;;;16.90;11.32;;;21.60;99.90;;;;;;4189151;28;20028;-65
2021/08/17 04:32:13;;;;;;;16.38;10.70;;;21.80;99.90;;;;;;4189195;28;20109;-66
2021/08/17 04:34:14;;;;;;;17.75;12.15;;;22.10;99.90;;;;;;4189392;28;20024;-65
2021/08/17 04:36:15;;;;;;;18.27;11.70;;;22.10;99.90;;;;;;4189042;28;20465;-66
2021/08/17 04:38:17;;;;;;;24.65;12.88;;;22.10;99.90;;;;;;4188671;28;20044;-65
2021/08/17 04:40:18;;;;;;;16.00;11.13;;;22.20;99.90;;;;;;4188472;28;20062;-65
2021/08/17 04:42:19;;;;;;;15.98;11.40;;;22.40;99.90;;;;;;4188471;28;20823;-65
2021/08/17 04:44:20;;;;;;;20.60;10.90;;;22.40;99.90;;;;;;4188920;28;20070;-64
2021/08/17 04:46:21;;;;;;;15.73;10.75;;;22.50;99.90;;;;;;4189216;28;20530;-66
2021/08/17 04:48:22;;;;;;;15.55;11.30;;;22.70;99.90;;;;;;4188303;28;20040;-65
2021/08/17 04:50:24;;;;;;;13.93;10.93;;;22.90;99.90;;;;;;4189054;28;20471;-64
2021/08/17 04:52:25;;;;;;;18.25;10.82;;;23.00;99.90;;;;;;4187997;28;20029;-64
2021/08/17 04:54:26;;;;;;;16.00;10.88;;;23.20;99.90;;;;;;4170946;28;20736;-65
2021/08/17 04:56:27;;;;;;;14.98;10.38;;;23.30;99.90;;;;;;4187784;28;20492;-64
2021/08/17 04:58:28;;;;;;;17.77;10.77;;;23.50;99.90;;;;;;4187548;28;20082;-65
2021/08/17 05:00:29;;;;;;;19.15;11.00;;;23.50;99.90;;;;;;4186975;28;20033;-64
2021/08/17 05:02:32;;;;;;;16.95;10.52;;;23.70;99.90;;;;;;4187417;28;20479;-65
2021/08/17 05:04:33;;;;;;;16.95;11.00;;;23.40;99.90;;;;;;4174246;28;20133;-64
2021/08/17 05:06:35;;;;;;;17.17;10.25;;;22.60;99.90;;;;;;4187313;28;20059;-64
2021/08/17 05:08:38;;;;;;;17.58;11.50;;;22.20;99.90;;;;;;4187468;28;20390;-64
2021/08/17 05:10:39;;;;;;;18.50;13.88;;;22.00;99.90;;;;;;4187064;28;20044;-64
2021/08/17 05:12:40;;;;;;;42.67;18.55;;;21.90;99.90;;;;;;4187068;28;20036;-64
2021/08/17 05:14:41;;;;;;;26.48;14.95;;;21.80;99.90;;;;;;4181619;28;20488;-65
2021/08/17 05:16:43;;;;;;;17.90;13.05;;;21.80;99.90;;;;;;4186814;28;20102;-62
2021/08/17 05:18:45;;;;;;;16.83;12.02;;;21.80;99.90;;;;;;4186996;28;20219;-64
2021/08/17 05:20:46;;;;;;;16.77;10.02;;;21.90;99.90;;;;;;4187543;28;20028;-62
2021/08/17 05:22:47;;;;;;;14.20;10.02;;;21.80;99.90;;;;;;4191436;28;20604;-63
2021/08/17 05:24:48;;;;;;;16.88;11.20;;;21.70;99.90;;;;;;4171760;28;20037;-63
2021/08/17 05:26:49;;;;;;;19.83;11.57;;;21.70;99.90;;;;;;4171938;28;20086;-65
2021/08/17 05:28:50;;;;;;;18.50;11.10;;;21.80;99.90;;;;;;4171651;28;20037;-64
2021/08/17 05:30:52;;;;;;;12.95;11.52;;;22.00;99.90;;;;;;4171914;28;20041;-64
2021/08/17 05:32:53;;;;;;;18.17;11.52;;;22.10;99.90;;;;;;4172028;28;20079;-65
2021/08/17 05:34:55;;;;;;;18.15;10.00;;;22.10;99.90;;;;;;4171777;28;20095;-65
2021/08/17 05:36:56;;;;;;;16.02;10.65;;;22.10;99.90;;;;;;4171598;28;20045;-66
2021/08/17 05:38:58;;;;;;;19.63;11.27;;;22.50;99.90;;;;;;4171813;28;20107;-65
2021/08/17 05:40:59;;;;;;;25.38;17.42;;;23.10;99.90;;;;;;4171318;28;20063;-65
2021/08/17 05:43:00;;;;;;;28.52;17.30;;;23.30;99.90;;;;;;4171583;28;20407;-65
2021/08/17 05:45:01;;;;;;;14.32;10.32;;;23.20;99.90;;;;;;4172089;28;20491;-65
2021/08/17 05:47:03;;;;;;;13.52;9.07;;;23.10;99.90;;;;;;4171729;28;20607;-65
2021/08/17 05:49:05;;;;;;;16.52;10.93;;;23.10;99.90;;;;;;4171417;28;20039;-64
2021/08/17 05:51:07;;;;;;;13.63;9.82;;;23.20;99.90;;;;;;4178142;28;20037;-66
2021/08/17 05:53:08;;;;;;;13.32;9.30;;;23.20;99.90;;;;;;4183472;28;20036;-67
2021/08/17 05:55:10;;;;;;;12.48;9.60;;;23.40;99.90;;;;;;4182994;28;20024;-63
2021/08/17 05:57:12;;;;;;;17.20;9.93;;;23.40;99.90;;;;;;4171438;28;20029;-64
2021/08/17 05:59:13;;;;;;;16.98;9.23;;;23.50;99.90;;;;;;4188211;28;20809;-64
2021/08/17 06:01:14;;;;;;;16.45;8.95;;;23.60;99.90;;;;;;4187929;28;20040;-64
2021/08/17 06:03:16;;;;;;;12.23;9.38;;;23.60;99.90;;;;;;4188454;28;20090;-65
2021/08/17 06:05:17;;;;;;;10.07;8.40;;;23.50;99.90;;;;;;4186157;28;20048;-66
2021/08/17 06:07:19;;;;;;;15.68;9.00;;;23.50;99.90;;;;;;4187625;28;20025;-64
2021/08/17 06:09:20;;;;;;;18.70;9.48;;;23.50;99.90;;;;;;4187344;28;20844;-65
2021/08/17 06:11:21;;;;;;;18.52;8.65;;;23.50;99.90;;;;;;4187487;28;20094;-64
2021/08/17 06:13:27;;;;;;;25.67;9.88;;;23.50;99.90;;;;;;4188028;28;20086;-64
2021/08/17 06:15:28;;;;;;;19.25;9.02;;;23.40;99.90;;;;;;4187895;28;20048;-63
2021/08/17 06:17:29;;;;;;;14.60;10.25;;;23.40;99.90;;;;;;4187818;28;20037;-65
2021/08/17 06:19:31;;;;;;;19.08;10.93;;;23.30;99.90;;;;;;4187418;28;20025;-64
2021/08/17 06:21:34;;;;;;;16.60;10.63;;;23.30;99.90;;;;;;4187330;28;20032;-66
2021/08/17 06:23:36;;;;;;;13.88;10.35;;;23.40;99.90;;;;;;4187018;28;20078;-64
2021/08/17 06:25:37;;;;;;;14.55;9.43;;;23.40;99.90;;;;;;4188665;28;20104;-64
2021/08/17 06:27:38;;;;;;;19.58;10.40;;;23.50;99.90;;;;;;4187731;28;20816;-63
2021/08/17 06:29:39;;;;;;;14.20;9.45;;;23.60;99.90;;;;;;4188521;28;20025;-64
2021/08/17 06:31:40;;;;;;;15.82;10.35;;;23.70;99.90;;;;;;4187357;28;20097;-68
2021/08/17 06:33:42;;;;;;;16.75;9.70;;;23.70;99.90;;;;;;4187919;28;20028;-64
2021/08/17 06:35:43;;;;;;;16.48;10.73;;;23.60;99.90;;;;;;4187825;28;20544;-65
2021/08/17 06:37:44;;;;;;;12.95;10.60;;;23.70;99.90;;;;;;4187253;28;20033;-65
2021/08/17 06:39:45;;;;;;;15.10;9.88;;;23.80;99.90;;;;;;4185856;28;20451;-64
2021/08/17 06:41:48;;;;;;;13.75;10.40;;;23.80;99.90;;;;;;4187024;28;20374;-64
2021/08/17 06:43:49;;;;;;;15.32;10.52;;;23.80;99.90;;;;;;4187185;28;20730;-65
2021/08/17 06:45:50;;;;;;;13.27;9.68;;;23.80;99.90;;;;;;4187462;28;20033;-64
2021/08/17 06:47:54;;;;;;;16.98;10.40;;;23.80;99.90;;;;;;4187678;28;20032;-66
2021/08/17 06:49:55;;;;;;;14.65;9.80;;;23.80;99.90;;;;;;4186944;28;20094;-64
2021/08/17 06:51:56;;;;;;;12.68;11.13;;;23.70;99.90;;;;;;4186560;28;20484;-66
2021/08/17 06:53:57;;;;;;;18.08;10.40;;;23.60;99.90;;;;;;4188890;28;20090;-65
2021/08/17 06:55:58;;;;;;;11.50;9.93;;;23.50;99.90;;;;;;4189908;28;20554;-63
2021/08/17 06:57:59;;;;;;;18.98;9.77;;;23.30;99.90;;;;;;4190499;28;20037;-63
2021/08/17 07:00:00;;;;;;;14.45;10.10;;;23.20;99.90;;;;;;4190792;28;20089;-65
2021/08/17 07:02:03;;;;;;;15.00;10.40;;;23.20;99.90;;;;;;4187026;28;20063;-64
2021/08/17 07:04:04;;;;;;;13.57;10.10;;;23.20;99.90;;;;;;4190736;28;20032;-64
2021/08/17 07:06:05;;;;;;;16.90;10.45;;;23.20;99.90;;;;;;4190384;28;20086;-64
2021/08/17 07:08:08;;;;;;;15.45;10.13;;;23.20;99.90;;;;;;4190749;28;20146;-64
2021/08/17 07:10:09;;;;;;;18.60;10.45;;;23.30;99.90;;;;;;4191184;28;20025;-64
2021/08/17 07:12:12;;;;;;;20.40;12.23;;;23.40;99.90;;;;;;4191135;28;20102;-62
2021/08/17 07:14:13;;;;;;;19.17;11.90;;;23.30;99.90;;;;;;4190537;28;20573;-63
2021/08/17 07:16:14;;;;;;;15.75;11.18;;;23.30;99.90;;;;;;4190535;28;20060;-63
2021/08/17 07:18:15;;;;;;;27.33;11.77;;;23.30;99.90;;;;;;4191175;28;20024;-63
2021/08/17 07:20:17;;;;;;;31.67;12.98;;;23.20;99.90;;;;;;4191257;28;20074;-62
2021/08/17 07:22:18;;;;;;;17.98;11.43;;;23.30;99.90;;;;;;4189764;28;20036;-63
2021/08/17 07:24:19;;;;;;;29.30;12.57;;;23.40;99.90;;;;;;4188314;28;20037;-63
2021/08/17 07:26:20;;;;;;;39.78;13.85;;;23.60;99.90;;;;;;4189852;28;20086;-62
2021/08/17 07:28:21;;;;;;;24.50;12.93;;;23.80;99.90;;;;;;4190598;28;20020;-63
2021/08/17 07:30:22;;;;;;;21.40;12.00;;;23.90;99.90;;;;;;4190495;28;20534;-63
2021/08/17 07:32:24;;;;;;;25.10;12.38;;;24.00;99.90;;;;;;4189306;28;20045;-64
2021/08/17 07:34:25;;;;;;;20.75;12.75;;;24.10;99.90;;;;;;4190250;28;20078;-64
2021/08/17 07:36:26;;;;;;;23.00;13.50;;;24.30;99.90;;;;;;4189176;28;20044;-64
2021/08/17 07:38:27;;;;;;;19.58;13.15;;;24.30;99.90;;;;;;4190633;28;20142;-64
2021/08/17 07:40:28;;;;;;;17.95;12.00;;;24.40;99.90;;;;;;4190294;28;20052;-64
2021/08/17 07:42:29;;;;;;;17.17;10.70;;;24.40;99.90;;;;;;4189488;28;20093;-64
2021/08/17 07:44:31;;;;;;;22.90;12.00;;;24.50;99.90;;;;;;4189134;28;20135;-64
2021/08/17 07:46:32;;;;;;;17.63;12.10;;;24.60;99.90;;;;;;4189019;28;20098;-64
2021/08/17 07:48:34;;;;;;;14.13;11.00;;;24.60;99.90;;;;;;4189470;28;20041;-63
2021/08/17 07:50:38;;;;;;;13.75;10.68;;;24.60;99.90;;;;;;4189595;28;20028;-63
2021/08/17 07:52:40;;;;;;;17.73;11.70;;;24.80;99.90;;;;;;4190269;28;20113;-64
2021/08/17 07:54:42;;;;;;;15.10;11.25;;;24.90;99.90;;;;;;4189118;28;20154;-63
2021/08/17 07:56:43;;;;;;;17.77;11.00;;;25.00;99.90;;;;;;4187688;28;20060;-63
2021/08/17 07:58:44;;;;;;;20.77;10.85;;;25.00;99.90;;;;;;4189405;28;20044;-64
2021/08/17 08:00:45;;;;;;;21.17;11.88;;;24.90;99.90;;;;;;4189858;28;20062;-64
2021/08/17 08:02:46;;;;;;;19.38;11.18;;;24.60;99.90;;;;;;4189627;28;20037;-63
2021/08/17 08:04:47;;;;;;;17.75;11.45;;;24.50;99.90;;;;;;4190185;28;20439;-64
2021/08/17 08:06:49;;;;;;;20.60;11.60;;;24.60;99.90;;;;;;4188592;28;20044;-63
2021/08/17 08:08:50;;;;;;;19.38;11.50;;;24.80;99.90;;;;;;4189824;28;20814;-64
2021/08/17 08:10:52;;;;;;;20.15;11.63;;;24.80;99.90;;;;;;4187771;28;20054;-63
2021/08/17 08:12:53;;;;;;;16.48;11.95;;;25.00;99.90;;;;;;4189444;28;20078;-64
2021/08/17 08:14:54;;;;;;;23.15;11.75;;;25.00;99.90;;;;;;4188859;28;20438;-63
2021/08/17 08:16:58;;;;;;;22.67;13.40;;;25.20;99.90;;;;;;4189061;28;20464;-63
2021/08/17 08:18:59;;;;;;;20.48;12.63;;;25.30;99.90;;;;;;4189036;28;20386;-64
2021/08/17 08:21:00;;;;;;;16.00;10.85;;;25.40;99.90;;;;;;4188929;28;20522;-63
2021/08/17 08:23:05;;;;;;;17.80;10.15;;;25.30;99.90;;;;;;4189574;28;20093;-63
2021/08/17 08:25:06;;;;;;;17.20;10.73;;;25.20;99.90;;;;;;4189039;28;20055;-63
2021/08/17 08:27:08;;;;;;;17.52;10.30;;;25.30;99.90;;;;;;4189703;28;20021;-64
2021/08/17 08:29:09;;;;;;;20.83;10.57;;;25.20;99.90;;;;;;4190016;28;20090;-63
2021/08/17 08:31:10;;;;;;;17.70;9.68;;;25.10;99.90;;;;;;4189772;28;20558;-63
2021/08/17 08:33:11;;;;;;;20.17;9.55;;;25.10;99.90;;;;;;4188548;28;20052;-63
2021/08/17 08:35:12;;;;;;;13.15;9.15;;;25.30;99.90;;;;;;4188690;28;20113;-63
2021/08/17 08:37:13;;;;;;;17.40;9.15;;;25.30;99.90;;;;;;4188924;28;20558;-63
2021/08/17 08:39:15;;;;;;;14.20;8.43;;;25.40;99.90;;;;;;4187529;28;20495;-64
2021/08/17 08:41:19;;;;;;;10.27;7.65;;;25.60;99.90;;;;;;4188997;28;20040;-63
2021/08/17 08:43:23;;;;;;;10.10;7.25;;;25.70;99.90;;;;;;4189154;28;20095;-64
2021/08/17 08:45:24;;;;;;;13.70;7.85;;;25.80;99.90;;;;;;4188938;28;20037;-63
2021/08/17 08:47:25;;;;;;;16.17;7.15;;;25.80;99.90;;;;;;4188858;28;20036;-65
2021/08/17 08:49:28;;;;;;;13.10;7.53;;;25.80;99.90;;;;;;4189353;28;20556;-65
2021/08/17 08:51:29;;;;;;;13.93;7.68;;;25.90;99.90;;;;;;4188651;28;20081;-64
2021/08/17 08:53:30;;;;;;;18.38;8.60;;;25.90;99.90;;;;;;4186774;28;20036;-64
2021/08/17 08:55:32;;;;;;;11.30;7.88;;;26.00;99.90;;;;;;4188207;28;20389;-63
2021/08/17 08:57:33;;;;;;;13.27;8.70;;;26.00;99.90;;;;;;4188740;28;20125;-64
2021/08/17 08:59:35;;;;;;;22.50;11.07;;;26.00;99.90;;;;;;4189254;28;20028;-64
2021/08/17 09:01:37;;;;;;;11.15;6.80;;;26.00;99.90;;;;;;4188419;28;20032;-63
2021/08/17 09:03:46;;;;;;;12.68;7.63;;;25.90;99.90;;;;;;4187284;28;20427;-63
2021/08/17 09:05:54;;;;;;;12.68;7.38;;;25.90;99.90;;;;;;4187606;28;20078;-64
2021/08/17 09:08:01;;;;;;;13.07;7.50;;;25.90;99.90;;;;;;4188176;28;20036;-64
2021/08/17 09:10:11;;;;;;;15.70;8.07;;;25.90;99.90;;;;;;4186435;28;20037;-64
2021/08/17 09:12:14;;;;;;;13.52;8.13;;;25.90;99.90;;;;;;4187697;28;20121;-64
2021/08/17 09:14:20;;;;;;;15.27;8.57;;;25.90;99.90;;;;;;4188676;28;20041;-64
2021/08/17 09:16:24;;;;;;;16.85;8.00;;;25.90;99.90;;;;;;4187805;28;20431;-63
2021/08/17 09:18:34;;;;;;;14.60;7.97;;;25.90;99.90;;;;;;4189083;28;20093;-64
2021/08/17 09:20:42;;;;;;;16.17;7.22;;;26.00;99.90;;;;;;4187840;28;20398;-64
2021/08/17 09:22:43;;;;;;;18.02;10.00;;;26.00;99.90;;;;;;4188408;28;20040;-62
2021/08/17 09:24:56;;;;;;;17.75;8.85;;;26.00;99.90;;;;;;4187997;28;20485;-63
2021/08/17 09:27:00;;;;;;;17.17;9.95;;;26.00;99.90;;;;;;4188512;28;20036;-63
2021/08/17 09:29:02;;;;;;;22.10;9.43;;;25.90;99.90;;;;;;4188379;28;20044;-62
2021/08/17 09:31:35;;;;;;;18.10;9.02;;;26.00;99.90;;;;;;4188204;28;20048;-63
2021/08/17 09:33:41;;;;;;;13.38;6.35;;;25.90;99.90;;;;;;4188205;28;20040;-64
2021/08/17 09:35:42;;;;;;;11.35;7.00;;;25.90;99.90;;;;;;4188751;28;20074;-63
2021/08/17 09:37:43;;;;;;;16.38;7.53;;;25.90;99.90;;;;;;4187638;28;20048;-64
2021/08/17 09:39:47;;;;;;;18.05;7.90;;;25.80;99.90;;;;;;4188408;28;20480;-64
2021/08/17 09:41:48;;;;;;;13.35;8.05;;;25.80;99.90;;;;;;4187794;28;20025;-63
2021/08/17 09:44:02;;;;;;;15.73;7.40;;;25.80;99.90;;;;;;4188135;28;20028;-65
2021/08/17 09:46:10;;;;;;;19.83;8.60;;;25.80;99.90;;;;;;4186207;28;20036;-63
2021/08/17 09:48:13;;;;;;;10.07;6.95;;;25.80;99.90;;;;;;4188213;28;20036;-64
2021/08/17 09:50:26;;;;;;;13.50;7.25;;;25.80;99.90;;;;;;4187473;28;20435;-63
2021/08/17 09:52:34;;;;;;;15.10;8.10;;;25.80;99.90;;;;;;4188026;28;20542;-63
2021/08/17 09:54:38;;;;;;;11.65;8.30;;;25.70;99.90;;;;;;4187467;28;20094;-63
2021/08/17 09:56:39;;;;;;;16.23;7.80;;;25.70;99.90;;;;;;4187627;28;20048;-63
2021/08/17 09:58:40;;;;;;;17.52;8.73;;;25.70;99.90;;;;;;4188867;28;20387;-63
2021/08/17 10:00:42;;;;;;;15.63;8.75;;;25.80;99.90;;;;;;4187128;28;20121;-63
2021/08/17 10:02:45;;;;;;;18.90;9.77;;;25.80;99.90;;;;;;4188226;28;20459;-63
2021/08/17 10:04:51;;;;;;;22.30;10.75;;;25.70;99.90;;;;;;4188133;28;20020;-64
2021/08/17 10:06:54;;;;;;;29.60;12.85;;;25.70;99.90;;;;;;4187443;28;20692;-63
2021/08/17 10:08:58;;;;;;;19.42;10.13;;;25.70;99.90;;;;;;4187368;28;20032;-63
2021/08/17 10:11:00;;;;;;;21.17;10.85;;;25.70;99.90;;;;;;4187733;28;20102;-66
2021/08/17 10:13:02;;;;;;;19.15;10.45;;;25.70;99.90;;;;;;4188034;28;20029;-62
2021/08/17 10:15:06;;;;;;;14.65;9.43;;;25.80;99.90;;;;;;4188274;28;20141;-63
2021/08/17 10:17:07;;;;;;;24.27;11.90;;;25.70;99.90;;;;;;4187252;28;20040;-62
2021/08/17 10:19:10;;;;;;;11.98;8.15;;;25.70;99.90;;;;;;4188585;28;20444;-63
2021/08/17 10:21:15;;;;;;;25.38;10.82;;;25.70;99.90;;;;;;4188140;28;20107;-64